Time;durP1;ratioP1;P1;durP2;ratioP2;P2;SDS_P1;SDS_P2;PMS_P1;PMS_P2;Temp;Humidity;BMP_temperature;BMP_pressure;BME280_temperature;BME280_humidity;BME280_pressure;Samples;Min_cycle;Max_cycle;Signal;HPM_P1;HPM_P2
2021/07/26 00:01:16;;;;;;;7.28;6.58;;;;;;;19.11;71.95;100031.58;1749604;80;21058;-56
2021/07/26 00:03:44;;;;;;;6.60;6.03;;;;;;;19.09;71.91;100031.31;1743979;80;21018;-55
2021/07/26 00:06:10;;;;;;;7.15;6.58;;;;;;;19.07;71.88;100030.56;1744314;80;21079;-56
2021/07/26 00:08:38;;;;;;;6.00;5.42;;;;;;;19.06;71.85;100032.42;1746523;79;21097;-55
2021/07/26 00:11:09;;;;;;;6.47;5.87;;;;;;;19.06;71.84;100029.69;1748717;80;21057;-54
2021/07/26 00:13:38;;;;;;;6.47;5.75;;;;;;;19.05;71.83;100032.56;1749613;80;20950;-57
2021/07/26 00:16:06;;;;;;;6.10;5.50;;;;;;;19.03;71.83;100035.41;1749745;80;20962;-55
2021/07/26 00:18:32;;;;;;;10.10;6.28;;;;;;;19.02;71.86;100035.52;1753843;79;21055;-55
2021/07/26 00:21:01;;;;;;;7.25;6.00;;;;;;;19.00;71.78;100032.04;1752026;80;21069;-54
2021/07/26 00:23:28;;;;;;;7.15;6.00;;;;;;;18.96;71.81;100037.37;1748335;80;21058;-55
2021/07/26 00:25:54;;;;;;;9.23;5.50;;;;;;;18.92;71.89;100031.28;1746886;80;21373;-56
2021/07/26 00:28:20;;;;;;;5.70;5.08;;;;;;;18.90;71.99;100034.13;1752850;79;21893;-55
2021/07/26 00:30:46;;;;;;;4.78;4.25;;;;;;;18.89;72.08;100032.38;1749039;80;20978;-56
2021/07/26 00:34:06;;;;;;;5.40;4.90;;;;;;;18.87;72.00;100030.30;1747239;80;21694;-55
2021/07/26 00:36:40;;;;;;;5.85;5.22;;;;;;;18.87;71.98;100028.05;1745552;79;21109;-54
2021/07/26 00:39:07;;;;;;;6.67;6.17;;;;;;;18.80;72.07;100027.64;1684122;82;21076;-55
2021/07/26 00:41:35;;;;;;;6.78;6.20;;;;;;;18.77;72.17;100027.90;1688542;83;21507;-55
2021/07/26 00:44:01;;;;;;;7.00;6.37;;;;;;;18.73;72.27;100027.75;1677381;83;22216;-54
2021/07/26 00:46:27;;;;;;;7.20;6.37;;;;;;;18.68;72.32;100020.92;1708357;81;21551;-54
2021/07/26 00:48:54;;;;;;;5.25;4.60;;;;;;;18.64;72.37;100024.37;1680869;83;21423;-55
2021/07/26 00:51:20;;;;;;;4.70;4.20;;;;;;;18.61;72.49;100025.12;1695244;82;21093;-55
2021/07/26 00:53:47;;;;;;;4.47;4.17;;;;;;;18.56;72.63;100021.33;1696044;82;21821;-55
2021/07/26 00:56:14;;;;;;;8.48;5.05;;;;;;;18.53;72.70;100022.95;1692969;82;21400;-54
2021/07/26 00:58:40;;;;;;;6.70;6.10;;;;;;;18.51;72.78;100022.19;1693671;82;21455;-56
2021/07/26 01:01:06;;;;;;;6.33;5.83;;;;;;;18.50;72.96;100019.08;1694090;82;21627;-55
2021/07/26 01:03:33;;;;;;;9.30;5.83;;;;;;;18.48;73.08;100017.83;1694853;82;21129;-55
2021/07/26 01:05:59;;;;;;;6.75;6.15;;;;;;;18.49;73.10;100011.89;1635226;86;21168;-56
2021/07/26 01:08:26;;;;;;;6.83;6.22;;;;;;;18.48;73.11;100007.42;1652397;83;21110;-56
2021/07/26 01:10:52;;;;;;;6.20;5.60;;;;;;;18.46;73.13;100003.94;1696193;83;21585;-54
2021/07/26 01:13:18;;;;;;;10.45;5.15;;;;;;;18.46;73.14;100006.66;1696704;82;21077;-55
2021/07/26 01:15:44;;;;;;;4.80;4.40;;;;;;;18.46;73.03;100008.89;1698857;83;21062;-55
2021/07/26 01:18:30;;;;;;;4.15;3.77;;;;;;;18.46;72.91;99999.36;1697777;83;21729;-55
2021/07/26 01:21:13;;;;;;;6.62;4.47;;;;;;;18.48;72.85;100007.42;1634980;85;21051;-55
2021/07/26 01:23:42;;;;;;;6.40;4.78;;;;;;;18.49;72.80;100002.34;1699568;82;21061;-56
2021/07/26 01:26:11;;;;;;;6.83;5.55;;;;;;;18.50;72.83;99995.42;1634501;85;21090;-55
2021/07/26 01:28:41;;;;;;;7.70;5.75;;;;;;;18.51;72.89;100000.38;1643795;85;21102;-55
2021/07/26 01:31:07;;;;;;;6.08;5.33;;;;;;;18.49;72.90;99993.67;1663941;84;21081;-54
2021/07/26 01:33:34;;;;;;;4.75;3.87;;;;;;;18.49;72.93;99994.17;1662566;84;21161;-55
2021/07/26 01:36:01;;;;;;;6.40;3.55;;;;;;;18.49;72.93;99992.81;1665020;85;21082;-53
2021/07/26 01:38:27;;;;;;;4.50;3.90;;;;;;;18.48;72.95;99992.43;1697320;83;21385;-55
2021/07/26 01:40:54;;;;;;;4.67;4.28;;;;;;;18.46;72.91;99993.91;1645817;85;21015;-54
2021/07/26 01:43:24;;;;;;;8.88;5.45;;;;;;;18.44;73.01;99996.39;1664648;84;21676;-53
2021/07/26 01:46:07;;;;;;;6.05;5.53;;;;;;;18.42;73.07;99987.45;1663410;85;21107;-55
2021/07/26 01:48:42;;;;;;;6.30;5.62;;;;;;;18.41;73.13;99996.13;1692124;82;21078;-56
2021/07/26 01:51:12;;;;;;;4.47;4.15;;;;;;;18.41;73.19;99993.40;1695080;82;21099;-56
2021/07/26 01:53:41;;;;;;;4.22;3.83;;;;;;;18.40;73.15;99995.75;1694620;82;21706;-56
2021/07/26 01:56:06;;;;;;;4.67;4.10;;;;;;;18.42;73.09;99991.55;1694268;83;21788;-55
2021/07/26 01:58:33;;;;;;;4.92;4.53;;;;;;;18.42;73.05;99998.36;1696964;82;21572;-56
2021/07/26 02:00:59;;;;;;;4.28;3.87;;;;;;;18.42;73.01;99995.63;1638839;85;21067;-54
2021/07/26 02:03:26;;;;;;;4.72;4.37;;;;;;;18.41;72.98;100002.06;1673426;83;21078;-53
2021/07/26 02:05:52;;;;;;;5.03;4.62;;;;;;;18.40;73.01;100004.41;1743783;81;21108;-56
2021/07/26 02:08:18;;;;;;;8.13;4.53;;;;;;;18.38;73.03;99999.08;1749385;79;22276;-54
2021/07/26 02:10:46;;;;;;;6.70;6.00;;;;;;;18.37;73.06;100003.31;1742272;81;21594;-54
2021/07/26 02:13:13;;;;;;;7.00;4.62;;;;;;;18.33;73.10;100001.78;1740414;81;21078;-55
2021/07/26 02:15:40;;;;;;;6.78;5.62;;;;;;;18.31;73.17;100005.98;1744782;79;21090;-55
2021/07/26 02:18:07;;;;;;;5.20;4.75;;;;;;;18.31;73.19;100005.98;1746457;81;21410;-55
2021/07/26 02:20:33;;;;;;;4.40;4.08;;;;;;;18.32;73.22;100010.95;1747558;81;21043;-54
2021/07/26 02:22:59;;;;;;;5.42;5.03;;;;;;;18.32;73.21;100002.77;1745082;81;21061;-55
2021/07/26 02:25:26;;;;;;;9.53;5.53;;;;;;;18.31;73.16;100008.71;1746847;81;20955;-54
2021/07/26 02:27:52;;;;;;;8.70;6.10;;;;;;;18.30;73.13;100012.42;1748423;81;21769;-55
2021/07/26 02:30:18;;;;;;;8.48;7.75;;;;;;;18.27;73.16;100009.95;1744798;81;20975;-55
2021/07/26 02:32:45;;;;;;;8.05;6.72;;;;;;;18.27;73.20;100014.52;1746050;81;22069;-54
2021/07/26 02:35:11;;;;;;;7.12;6.62;;;;;;;18.27;73.23;100011.31;1747319;81;20938;-55
2021/07/26 02:37:38;;;;;;;7.25;6.62;;;;;;;18.28;73.33;100012.18;1747457;81;20891;-55
2021/07/26 02:40:07;;;;;;;5.12;4.60;;;;;;;18.28;73.35;100014.41;1747937;81;21251;-53
2021/07/26 02:42:34;;;;;;;6.95;5.67;;;;;;;18.30;73.38;100018.36;1744613;81;21021;-55
2021/07/26 02:45:00;;;;;;;4.78;4.47;;;;;;;18.30;73.33;100014.27;1744493;81;21101;-55
2021/07/26 02:47:27;;;;;;;6.45;4.35;;;;;;;18.28;73.31;100018.99;1743086;81;21046;-56
2021/07/26 02:49:53;;;;;;;4.83;4.42;;;;;;;18.27;73.21;100023.57;1746801;81;21086;-55
2021/07/26 02:52:19;;;;;;;5.75;5.25;;;;;;;18.27;73.20;100021.34;1744680;81;21196;-55
2021/07/26 02:54:46;;;;;;;6.45;5.85;;;;;;;18.26;73.28;100023.19;1747941;79;21043;-54
2021/07/26 02:57:12;;;;;;;6.62;5.97;;;;;;;18.28;73.35;100021.72;1746988;81;21342;-55
2021/07/26 02:59:38;;;;;;;7.45;6.83;;;;;;;18.28;73.41;100023.95;1743370;81;21052;-53
2021/07/26 03:02:04;;;;;;;6.35;5.22;;;;;;;18.30;73.46;100023.81;1746810;79;21878;-54
2021/07/26 03:04:31;;;;;;;4.78;4.42;;;;;;;18.30;73.52;100019.72;1748777;79;21152;-54
2021/07/26 03:06:58;;;;;;;7.12;4.20;;;;;;;18.32;73.62;100023.20;1747867;80;21072;-55
2021/07/26 03:09:24;;;;;;;5.45;5.03;;;;;;;18.32;73.75;100025.44;1748469;80;21570;-55
2021/07/26 03:11:52;;;;;;;8.30;3.90;;;;;;;18.34;73.89;100017.16;1751450;80;21584;-55
2021/07/26 03:14:19;;;;;;;4.70;4.30;;;;;;;18.38;73.99;100021.37;1750072;80;20945;-55
2021/07/26 03:16:45;;;;;;;9.33;5.12;;;;;;;18.42;74.05;100026.48;1748222;79;21058;-56
2021/07/26 03:19:12;;;;;;;9.48;5.95;;;;;;;18.45;74.06;100024.91;1745993;80;21049;-54
2021/07/26 03:21:38;;;;;;;7.10;5.35;;;;;;;18.49;73.96;100029.61;1751131;80;21164;-55
2021/07/26 03:24:06;;;;;;;6.40;5.90;;;;;;;18.53;73.89;100028.41;1726196;80;21153;-55
2021/07/26 03:26:32;;;;;;;9.33;6.60;;;;;;;18.57;73.94;100030.41;1746488;80;21108;-55
2021/07/26 03:28:58;;;;;;;4.83;4.50;;;;;;;18.59;73.97;100034.77;1744799;80;21090;-55
2021/07/26 03:31:25;;;;;;;6.33;5.17;;;;;;;18.63;74.04;100033.53;1752368;80;21073;-55
2021/07/26 03:33:52;;;;;;;7.95;4.72;;;;;;;18.68;74.03;100031.34;1747942;80;21117;-56
2021/07/26 03:36:18;;;;;;;8.38;5.67;;;;;;;18.73;74.06;100029.11;1749010;80;21065;-56
2021/07/26 03:38:44;;;;;;;7.60;5.30;;;;;;;18.79;74.16;100031.38;1750614;79;21372;-56
2021/07/26 03:41:10;;;;;;;5.25;4.85;;;;;;;18.86;74.14;100033.13;1746987;80;21766;-55
2021/07/26 03:43:37;;;;;;;5.55;5.08;;;;;;;18.93;74.21;100034.39;1747829;80;21046;-54
2021/07/26 03:46:03;;;;;;;7.97;6.28;;;;;;;19.01;74.27;100037.37;1748583;80;21117;-54
2021/07/26 03:48:29;;;;;;;12.60;7.28;;;;;;;19.08;74.37;100034.54;1746751;80;21616;-55
2021/07/26 03:50:56;;;;;;;7.05;6.37;;;;;;;19.15;74.34;100033.06;1748122;80;21082;-54
2021/07/26 03:53:22;;;;;;;9.15;7.75;;;;;;;19.23;73.86;100042.00;1752023;80;21672;-53
2021/07/26 03:55:49;;;;;;;7.83;6.83;;;;;;;19.29;73.58;100030.62;1747608;80;21085;-55
2021/07/26 03:58:15;;;;;;;6.97;6.37;;;;;;;19.39;73.24;100035.72;1750181;80;21109;-55
2021/07/26 04:00:41;;;;;;;6.05;5.28;;;;;;;19.47;72.84;100038.73;1746715;79;21073;-55
2021/07/26 04:03:17;;;;;;;6.58;6.00;;;;;;;19.57;72.58;100034.73;1744109;80;21053;-54
2021/07/26 04:08:15;;;;;;;7.03;6.40;;;;;;;19.78;72.05;100041.70;1740445;81;21107;-54
2021/07/26 04:10:53;;;;;;;10.43;7.83;;;;;;;19.87;71.96;100039.09;1746941;81;20986;-54
2021/07/26 04:13:17;;;;;;;11.48;7.62;;;;;;;19.98;71.69;100042.31;1748578;81;21072;-56
2021/07/26 04:17:03;;;;;;;8.70;7.80;;;;;;;20.18;71.27;100039.27;1791150;78;28227;-53
2021/07/26 04:19:31;;;;;;;8.53;6.40;;;;;;;20.24;70.98;100042.88;1762839;79;21495;-56
2021/07/26 04:21:58;;;;;;;14.78;7.08;;;;;;;20.34;70.57;100039.75;1770936;79;22345;-56
2021/07/26 04:24:25;;;;;;;26.45;8.08;;;;;;;20.46;70.58;100040.09;1763904;79;21439;-55
2021/07/26 04:26:53;;;;;;;9.23;6.03;;;;;;;20.58;70.40;100040.94;1765225;79;21474;-54
2021/07/26 04:29:20;;;;;;;8.55;7.65;;;;;;;20.68;70.05;100037.76;1765754;79;21288;-54
2021/07/26 04:31:47;;;;;;;9.88;8.58;;;;;;;20.78;69.72;100030.01;1772856;79;21400;-54
2021/07/26 04:34:14;;;;;;;12.55;10.08;;;;;;;20.90;69.40;100033.56;1770429;79;21501;-54
2021/07/26 04:36:42;;;;;;;8.55;7.85;;;;;;;21.03;69.25;100029.25;1759866;79;21626;-54
2021/07/26 04:39:09;;;;;;;10.40;9.45;;;;;;;21.11;69.27;100030.81;1767249;79;21516;-56
2021/07/26 04:41:36;;;;;;;9.45;8.65;;;;;;;21.18;69.35;100031.20;1766733;79;21061;-55
2021/07/26 04:44:03;;;;;;;9.50;8.70;;;;;;;21.25;69.35;100031.89;1761469;79;21049;-55
2021/07/26 04:46:29;;;;;;;12.30;10.00;;;;;;;21.33;69.52;100040.30;1761645;79;21453;-57
2021/07/26 04:48:56;;;;;;;11.28;10.18;;;;;;;21.41;69.37;100036.38;1764873;79;20903;-56
2021/07/26 04:51:23;;;;;;;11.10;9.03;;;;;;;21.47;69.33;100040.43;1764190;79;20914;-55
2021/07/26 04:53:49;;;;;;;9.98;8.98;;;;;;;21.55;69.39;100040.62;1763186;79;20936;-55
2021/07/26 04:56:15;;;;;;;12.43;11.33;;;;;;;21.62;69.41;100036.32;1761675;79;21709;-56
2021/07/26 04:58:42;;;;;;;13.85;9.55;;;;;;;21.69;69.72;100041.61;1767963;79;21678;-57
2021/07/26 05:01:09;;;;;;;11.73;10.55;;;;;;;21.78;70.04;100041.28;1763364;79;21092;-54
2021/07/26 05:03:36;;;;;;;12.20;10.72;;;;;;;21.84;69.45;100038.88;1772563;79;21733;-55
2021/07/26 05:06:06;;;;;;;10.03;8.88;;;;;;;21.91;68.97;100040.55;1771290;79;20930;-55
2021/07/26 05:08:33;;;;;;;10.13;8.93;;;;;;;21.99;68.32;100033.04;1770009;79;21322;-55
2021/07/26 05:10:59;;;;;;;9.80;8.88;;;;;;;22.05;67.93;100032.47;1764593;79;21087;-54
2021/07/26 05:13:25;;;;;;;8.50;7.85;;;;;;;22.11;68.08;100033.30;1770954;79;20899;-54
2021/07/26 05:15:52;;;;;;;8.28;7.65;;;;;;;22.19;67.83;100040.32;1766525;79;21473;-53
2021/07/26 05:18:20;;;;;;;9.83;8.83;;;;;;;22.27;67.46;100036.37;1729612;81;21767;-53
2021/07/26 05:20:48;;;;;;;9.70;8.85;;;;;;;22.36;67.37;100033.28;1750421;80;21398;-54
2021/07/26 05:23:16;;;;;;;12.88;8.38;;;;;;;22.46;67.21;100031.39;1753761;81;21100;-54
2021/07/26 05:25:45;;;;;;;8.28;7.58;;;;;;;22.54;66.83;100032.95;1748155;79;20907;-53
2021/07/26 05:28:13;;;;;;;9.38;8.33;;;;;;;22.62;66.80;100033.09;1756333;81;20914;-56
2021/07/26 05:30:39;;;;;;;9.58;8.88;;;;;;;22.71;66.59;100031.36;1743656;81;21075;-54
2021/07/26 05:33:06;;;;;;;11.30;6.53;;;;;;;22.79;66.00;100021.93;1745076;79;21042;-54
2021/07/26 05:35:33;;;;;;;7.00;6.40;;;;;;;22.90;65.54;100029.48;1748807;81;22248;-55
2021/07/26 05:38:03;;;;;;;10.35;6.28;;;;;;;22.98;65.08;100028.75;1746873;81;21559;-56
2021/07/26 05:40:31;;;;;;;7.67;6.92;;;;;;;23.08;65.42;100027.37;1750929;80;21007;-55
2021/07/26 05:42:57;;;;;;;7.85;7.17;;;;;;;23.17;65.25;100030.10;1747630;81;20997;-55
2021/07/26 05:45:24;;;;;;;7.85;7.30;;;;;;;23.27;64.34;100030.95;1747340;81;21154;-55
2021/07/26 05:47:50;;;;;;;5.87;5.42;;;;;;;23.37;63.46;100026.31;1748428;81;22276;-56
2021/07/26 05:50:18;;;;;;;6.33;5.65;;;;;;;23.47;63.02;100025.42;1753484;81;21111;-54
2021/07/26 05:52:46;;;;;;;5.83;5.37;;;;;;;23.56;62.70;100021.27;1747975;81;21346;-55
2021/07/26 05:55:13;;;;;;;7.75;5.17;;;;;;;23.65;62.27;100034.11;1748346;81;21667;-54
2021/07/26 05:57:44;;;;;;;4.78;4.37;;;;;;;23.73;62.15;100027.34;1744536;81;21136;-56
2021/07/26 06:00:11;;;;;;;5.08;4.78;;;;;;;23.81;61.02;100033.49;1746349;81;21758;-55
2021/07/26 06:02:37;;;;;;;5.17;4.60;;;;;;;23.89;59.91;100034.11;1745356;81;21050;-56
2021/07/26 06:05:04;;;;;;;7.12;5.65;;;;;;;23.95;59.79;100034.35;1747460;81;21129;-55
2021/07/26 06:07:30;;;;;;;5.80;5.35;;;;;;;24.02;59.53;100032.72;1745983;79;21125;-54
2021/07/26 06:09:57;;;;;;;9.18;4.95;;;;;;;24.08;59.55;100022.47;1751245;79;21471;-55
2021/07/26 06:12:23;;;;;;;6.30;4.92;;;;;;;24.17;59.71;100026.19;1748699;81;21513;-55
2021/07/26 06:14:49;;;;;;;9.80;6.45;;;;;;;24.24;59.27;100033.37;1750887;80;21075;-55
2021/07/26 06:17:17;;;;;;;6.45;5.05;;;;;;;24.30;59.04;100033.61;1747344;80;21069;-56
2021/07/26 06:19:43;;;;;;;7.05;5.85;;;;;;;24.35;58.75;100026.25;1744871;81;21101;-55
2021/07/26 06:22:11;;;;;;;5.35;5.05;;;;;;;24.41;59.05;100034.74;1748824;81;21067;-56
2021/07/26 06:24:37;;;;;;;9.00;6.35;;;;;;;24.49;59.13;100042.25;1747442;81;21115;-54
2021/07/26 06:27:04;;;;;;;8.63;5.85;;;;;;;24.56;59.11;100047.48;1749401;81;20995;-54
2021/07/26 06:29:30;;;;;;;5.10;4.70;;;;;;;24.62;59.59;100039.96;1748600;81;21102;-55
2021/07/26 06:31:57;;;;;;;7.90;5.90;;;;;;;24.71;59.88;100047.28;1746454;81;21056;-59
2021/07/26 06:34:24;;;;;;;5.17;4.78;;;;;;;24.80;59.48;100046.34;1746755;81;21042;-58
2021/07/26 06:36:50;;;;;;;5.70;4.72;;;;;;;24.89;59.09;100045.39;1740830;81;21114;-58
2021/07/26 06:39:16;;;;;;;6.60;4.40;;;;;;;24.98;58.95;100046.87;1748403;81;21036;-59
2021/07/26 06:41:43;;;;;;;4.65;4.35;;;;;;;25.07;59.11;100049.55;1748503;79;21062;-55
2021/07/26 06:44:10;;;;;;;5.97;3.85;;;;;;;25.17;58.49;100057.72;1748055;79;21285;-56
2021/07/26 06:46:39;;;;;;;5.15;3.40;;;;;;;25.26;58.17;100056.76;1747551;81;21599;-55
2021/07/26 06:49:05;;;;;;;4.08;3.77;;;;;;;25.36;57.42;100060.77;1753334;81;21134;-55
2021/07/26 06:51:32;;;;;;;3.52;3.20;;;;;;;25.45;56.74;100066.17;1743653;81;21051;-56
2021/07/26 06:53:58;;;;;;;3.27;2.60;;;;;;;25.54;56.09;100069.86;1748912;81;21090;-55
2021/07/26 06:56:25;;;;;;;10.30;3.50;;;;;;;25.61;55.36;100061.31;1748234;79;21046;-55
2021/07/26 06:58:51;;;;;;;3.75;3.02;;;;;;;25.69;55.45;100067.42;1749878;81;21056;-53
2021/07/26 07:01:18;;;;;;;3.02;2.80;;;;;;;25.75;55.38;100070.90;1747508;81;21698;-56
2021/07/26 07:03:45;;;;;;;4.28;3.27;;;;;;;25.81;54.66;100067.48;1747523;81;21025;-57
2021/07/26 07:06:14;;;;;;;3.20;2.98;;;;;;;25.88;55.07;100072.68;1748507;81;21058;-57
2021/07/26 07:08:40;;;;;;;5.22;2.30;;;;;;;25.93;54.77;100073.07;1752183;81;21050;-56
2021/07/26 07:11:15;;;;;;;2.40;2.15;;;;;;;25.99;53.04;100075.16;1749312;81;21257;-56
2021/07/26 07:13:48;;;;;;;2.60;2.40;;;;;;;26.03;52.27;100076.55;1747886;81;21586;-55
2021/07/26 07:16:19;;;;;;;2.77;2.58;;;;;;;26.09;51.56;100080.05;1739614;80;21310;-57
2021/07/26 07:18:47;;;;;;;3.47;2.25;;;;;;;26.14;50.88;100077.64;1713587;81;21061;-56
2021/07/26 07:21:20;;;;;;;3.55;2.30;;;;;;;26.21;51.13;100084.22;1715230;81;21033;-57
2021/07/26 07:23:47;;;;;;;2.72;2.50;;;;;;;26.26;50.39;100077.73;1714930;81;21335;-58
2021/07/26 07:26:15;;;;;;;3.27;2.17;;;;;;;26.34;49.53;100074.14;1714102;81;21117;-57
2021/07/26 07:28:41;;;;;;;2.65;2.42;;;;;;;26.39;49.38;100074.48;1712615;81;21152;-56
2021/07/26 07:31:08;;;;;;;2.08;1.87;;;;;;;26.46;49.43;100078.30;1709543;81;21152;-57
2021/07/26 07:33:34;;;;;;;4.00;2.15;;;;;;;26.53;49.69;100077.14;1711400;81;21123;-57
2021/07/26 07:36:03;;;;;;;3.92;2.05;;;;;;;26.56;50.10;100074.89;1712004;81;21060;-56
2021/07/26 07:38:31;;;;;;;3.42;2.35;;;;;;;26.61;49.91;100073.02;1715558;81;21788;-56
2021/07/26 07:40:58;;;;;;;3.70;2.42;;;;;;;26.64;49.93;100075.42;1716509;81;21696;-56
2021/07/26 07:43:28;;;;;;;6.35;2.33;;;;;;;26.67;49.55;100076.48;1711474;81;21147;-56
2021/07/26 07:45:55;;;;;;;4.95;2.10;;;;;;;26.72;49.05;100076.82;1711308;81;21090;-57
2021/07/26 07:48:24;;;;;;;4.62;2.70;;;;;;;26.77;48.76;100073.05;1713315;81;21081;-57
2021/07/26 07:50:54;;;;;;;3.25;2.50;;;;;;;26.84;48.94;100078.23;1712692;81;21124;-56
2021/07/26 07:53:21;;;;;;;2.42;2.22;;;;;;;26.91;48.67;100073.78;1718114;81;21056;-56
2021/07/26 07:55:47;;;;;;;7.37;2.25;;;;;;;26.98;48.40;100078.09;1716158;81;21746;-57
2021/07/26 07:58:14;;;;;;;6.45;2.22;;;;;;;27.02;47.66;100073.45;1711790;81;21055;-58
2021/07/26 08:00:40;;;;;;;12.13;3.22;;;;;;;27.07;47.37;100077.08;1712356;81;21116;-57
2021/07/26 08:03:07;;;;;;;2.35;2.22;;;;;;;27.13;47.73;100077.80;1716925;81;21062;-57
2021/07/26 08:05:33;;;;;;;11.30;1.87;;;;;;;27.19;46.87;100071.56;1711463;81;21116;-57
2021/07/26 08:08:00;;;;;;;3.25;1.95;;;;;;;27.24;46.55;100077.42;1713316;81;21416;-59
2021/07/26 08:10:26;;;;;;;1.82;1.72;;;;;;;27.28;45.86;100069.66;1707404;81;21494;-58
2021/07/26 08:12:54;;;;;;;4.58;1.57;;;;;;;27.34;44.97;100081.40;1713360;81;21286;-57
2021/07/26 08:15:21;;;;;;;9.58;1.82;;;;;;;27.38;44.71;100074.50;1712883;81;21681;-58
2021/07/26 08:17:48;;;;;;;2.17;1.60;;;;;;;27.44;45.38;100071.03;1711484;81;21535;-56
2021/07/26 08:20:16;;;;;;;2.20;1.77;;;;;;;27.53;45.02;100070.50;1716815;81;21456;-60
2021/07/26 08:22:43;;;;;;;4.80;2.00;;;;;;;27.60;43.93;100075.70;1713752;81;20931;-59
2021/07/26 08:25:11;;;;;;;2.05;1.70;;;;;;;27.65;42.27;100078.28;1717331;81;20982;-57
2021/07/26 08:27:55;;;;;;;1.50;1.40;;;;;;;27.70;42.73;100075.86;1712197;81;21853;-57
2021/07/26 08:30:28;;;;;;;7.03;2.10;;;;;;;27.74;42.07;100074.45;1717947;81;21441;-57
2021/07/26 08:32:54;;;;;;;1.70;1.60;;;;;;;27.80;43.10;100068.77;1715045;81;20972;-55
2021/07/26 08:35:21;;;;;;;2.58;1.70;;;;;;;27.86;43.31;100068.05;1714579;81;21112;-58
2021/07/26 08:37:48;;;;;;;2.00;1.57;;;;;;;27.95;43.04;100075.80;1708621;81;21361;-57
2021/07/26 08:40:15;;;;;;;2.72;1.42;;;;;;;27.98;42.23;100066.64;1713053;81;22135;-58
2021/07/26 08:42:41;;;;;;;2.12;1.20;;;;;;;28.04;41.43;100067.81;1709541;81;22451;-58
2021/07/26 08:45:09;;;;;;;2.55;1.75;;;;;;;28.11;41.84;100068.82;1709999;81;21117;-60
2021/07/26 08:47:41;;;;;;;1.92;1.50;;;;;;;28.17;42.34;100077.81;1712333;81;20907;-60
2021/07/26 08:50:08;;;;;;;1.52;1.42;;;;;;;28.20;42.43;100076.95;1712313;81;21488;-59
2021/07/26 08:52:43;;;;;;;2.12;1.30;;;;;;;28.26;40.71;100069.82;1710508;81;21135;-58
2021/07/26 08:55:17;;;;;;;1.75;1.57;;;;;;;28.25;41.14;100069.48;1712005;81;21435;-59
2021/07/26 08:57:48;;;;;;;1.30;1.20;;;;;;;28.29;40.93;100069.47;1679046;83;21749;-58
2021/07/26 09:00:17;;;;;;;2.17;1.72;;;;;;;28.31;40.02;100065.14;1715097;81;21574;-60
2021/07/26 09:02:43;;;;;;;2.42;1.40;;;;;;;28.30;39.88;100073.97;1711462;81;21133;-57
2021/07/26 09:05:12;;;;;;;5.17;1.60;;;;;;;28.27;39.68;100067.40;1716075;81;23197;-58
2021/07/26 09:07:40;;;;;;;7.22;1.37;;;;;;;28.27;39.99;100066.53;1712014;81;21116;-57
2021/07/26 09:10:16;;;;;;;2.62;1.55;;;;;;;28.27;40.37;100064.63;1711971;81;21698;-57
2021/07/26 09:12:43;;;;;;;7.50;2.17;;;;;;;28.32;40.75;100063.59;1709432;81;21099;-57
2021/07/26 09:15:28;;;;;;;1.77;1.67;;;;;;;28.40;40.89;100070.98;1714859;81;21113;-57
2021/07/26 09:18:03;;;;;;;2.42;1.87;;;;;;;28.47;39.61;100063.16;1738404;79;22134;-58
2021/07/26 09:20:30;;;;;;;5.35;1.40;;;;;;;28.54;38.99;100061.37;1751803;80;21037;-59
2021/07/26 09:22:58;;;;;;;1.45;1.35;;;;;;;28.61;38.37;100053.20;1757228;80;21050;-58
2021/07/26 09:25:28;;;;;;;2.80;1.80;;;;;;;28.67;37.48;100057.17;1751224;80;21072;-61
2021/07/26 09:28:07;;;;;;;2.20;1.50;;;;;;;28.73;38.75;100053.14;1751929;79;21124;-60
2021/07/26 09:30:52;;;;;;;5.78;2.62;;;;;;;28.80;39.84;100052.77;1748459;80;21788;-61
2021/07/26 09:33:31;;;;;;;3.50;1.40;;;;;;;28.86;39.14;100057.56;1754318;80;21026;-58
2021/07/26 09:36:18;;;;;;;2.17;1.80;;;;;;;28.94;38.40;100052.48;1747956;79;21125;-58
2021/07/26 09:38:52;;;;;;;4.40;1.60;;;;;;;28.99;38.57;100051.42;1749268;80;21090;-59
2021/07/26 09:41:48;;;;;;;3.15;1.40;;;;;;;29.00;38.29;100050.91;1753755;80;21082;-59
2021/07/26 09:44:25;;;;;;;2.58;1.52;;;;;;;28.96;38.55;100052.64;1751445;79;21740;-61
2021/07/26 09:46:53;;;;;;;13.18;2.00;;;;;;;28.90;39.06;100053.91;1735033;80;21105;-59
2021/07/26 09:49:20;;;;;;;2.05;1.85;;;;;;;28.87;39.19;100053.75;1747145;80;21488;-58
2021/07/26 09:52:10;;;;;;;3.60;1.55;;;;;;;28.88;39.80;100054.61;1755804;80;21122;-56
2021/07/26 09:54:45;;;;;;;1.32;1.22;;;;;;;28.92;39.69;100054.59;1747822;81;21989;-58
2021/07/26 09:57:18;;;;;;;7.42;1.80;;;;;;;28.99;38.96;100050.03;1753698;80;21017;-59
2021/07/26 09:59:45;;;;;;;4.55;1.42;;;;;;;29.07;37.36;100055.52;1751190;80;21047;-59
2021/07/26 10:02:17;;;;;;;1.60;1.50;;;;;;;29.14;37.44;100055.62;1749027;80;21079;-59
2021/07/26 10:04:44;;;;;;;2.17;1.40;;;;;;;29.22;38.50;100046.72;1750099;80;21019;-57
2021/07/26 10:07:12;;;;;;;1.67;1.40;;;;;;;29.30;39.34;100049.94;1684209;82;21089;-56
2021/07/26 10:09:41;;;;;;;2.22;1.45;;;;;;;29.35;38.95;100052.51;1679521;84;21092;-60
2021/07/26 10:12:10;;;;;;;1.60;1.50;;;;;;;29.39;39.38;100049.38;1744905;80;21417;-59
2021/07/26 10:14:38;;;;;;;4.87;1.60;;;;;;;29.43;39.29;100050.73;1756892;80;21042;-59
2021/07/26 10:17:04;;;;;;;4.30;1.45;;;;;;;29.45;38.93;100050.00;1752373;79;21098;-58
2021/07/26 10:19:32;;;;;;;2.05;1.40;;;;;;;29.48;39.26;100056.56;1753245;80;21084;-58
2021/07/26 10:21:59;;;;;;;2.65;1.60;;;;;;;29.50;37.07;100053.08;1751580;80;21148;-58
2021/07/26 10:24:37;;;;;;;3.50;1.87;;;;;;;29.53;37.22;100049.91;1752980;80;21144;-61
2021/07/26 10:27:06;;;;;;;2.30;2.12;;;;;;;29.59;37.74;100047.80;1749390;80;21355;-59
2021/07/26 10:29:55;;;;;;;5.97;1.80;;;;;;;29.66;37.15;100050.14;1755341;80;21116;-60
2021/07/26 10:32:36;;;;;;;1.85;1.50;;;;;;;29.69;37.87;100051.13;1748903;80;21038;-61
2021/07/26 10:35:15;;;;;;;2.05;1.70;;;;;;;29.73;36.98;100051.09;1749285;80;22044;-60
2021/07/26 10:37:48;;;;;;;2.87;1.65;;;;;;;29.75;37.12;100042.06;1752832;80;20995;-62
2021/07/26 10:40:25;;;;;;;4.12;1.92;;;;;;;29.80;37.36;100039.57;1751569;79;20894;-59
2021/07/26 10:42:53;;;;;;;2.58;1.65;;;;;;;29.82;38.08;100033.84;1732802;79;20983;-62
2021/07/26 10:45:36;;;;;;;1.70;1.60;;;;;;;29.86;37.09;100033.25;1732866;81;21058;-60
2021/07/26 10:48:27;;;;;;;;;;;;;;;29.87;37.68;100031.34;1756106;80;21472;-60
2021/07/26 10:50:54;;;;;;;2.37;1.80;;;;;;;29.88;37.52;100030.29;1753627;80;21170;-63
2021/07/26 10:53:41;;;;;;;2.95;1.70;;;;;;;29.86;37.06;100027.70;1753125;80;21532;-61
2021/07/26 10:56:11;;;;;;;2.75;1.50;;;;;;;29.86;36.74;100030.47;1707508;82;21086;-57
2021/07/26 10:58:49;;;;;;;5.67;2.00;;;;;;;29.86;36.63;100026.87;1751734;79;21531;-62
2021/07/26 11:01:27;;;;;;;4.75;2.50;;;;;;;29.85;36.48;100026.00;1750571;80;21775;-61
2021/07/26 11:03:56;;;;;;;3.72;1.80;;;;;;;29.84;36.17;100024.28;1751405;80;20993;-60
2021/07/26 11:06:42;;;;;;;19.55;4.33;;;;;;;29.79;36.11;100012.88;1754946;79;20943;-59
2021/07/26 11:09:41;;;;;;;5.80;1.80;;;;;;;29.77;37.41;100015.00;1749777;80;21625;-61
2021/07/26 11:11:54;;;;;;;8.58;1.92;;;;;;;29.79;38.05;100012.88;1744503;80;21505;-62
2021/07/26 11:14:21;;;;;;;1.85;1.75;;;;;;;29.82;37.13;100015.27;1752306;80;21090;-59
2021/07/26 11:17:03;;;;;;;2.72;1.60;;;;;;;29.84;37.29;100009.55;1751345;80;20988;-60
2021/07/26 11:19:51;;;;;;;2.70;1.40;;;;;;;29.86;36.82;100008.27;1687871;83;20926;-62
2021/07/26 11:22:29;;;;;;;3.05;1.75;;;;;;;29.87;36.60;100004.97;1709169;83;20981;-60
2021/07/26 11:25:09;;;;;;;2.33;1.67;;;;;;;29.89;36.32;100015.36;1692281;82;21813;-63
2021/07/26 11:27:40;;;;;;;1.80;1.40;;;;;;;29.91;37.05;100014.66;1690761;82;21792;-60
2021/07/26 11:30:08;;;;;;;13.25;2.12;;;;;;;29.92;36.66;100013.08;1701948;81;21109;-60
2021/07/26 11:32:36;;;;;;;4.72;2.45;;;;;;;29.92;35.27;100006.14;1717182;82;21087;-60
2021/07/26 11:35:04;;;;;;;1.60;1.50;;;;;;;29.92;35.92;100005.28;1712083;82;21472;-59
2021/07/26 11:37:37;;;;;;;2.02;1.30;;;;;;;29.91;36.93;100009.10;1714098;82;21335;-62